Time;durP1;ratioP1;P1;durP2;ratioP2;P2;SDS_P1;SDS_P2;PMS_P1;PMS_P2;Temp;Humidity;BMP_temperature;BMP_pressure;BME280_temperature;BME280_humidity;BME280_pressure;Samples;Min_cycle;Max_cycle;Signal;HPM_P1;HPM_P2
2022/06/09 00:04:00;;;;;;;5.97;5.07;;;;;;;16.38;94.60;100381.22;20766404;28;20655;-74
2022/06/09 00:14:22;;;;;;;;;;;;;;;16.46;100.00;100382.97;20759230;28;20068;-75
2022/06/09 00:24:44;;;;;;;6.50;5.75;;;;;;;16.40;95.89;100395.06;20786666;28;19929;-75
2022/06/09 00:35:06;;;;;;;7.00;6.13;;;;;;;16.47;95.28;100384.63;20779526;28;20056;-74
2022/06/09 00:45:34;;;;;;;11.85;6.20;;;;;;;16.54;94.31;100400.66;20780759;28;20075;-74
2022/06/09 00:55:59;;;;;;;10.52;6.57;;;;;;;16.48;96.49;100399.44;20785700;28;20038;-75
2022/06/09 01:06:25;;;;;;;12.90;7.20;;;;;;;16.50;95.13;100405.41;20791877;28;20537;-75
2022/06/09 01:16:49;;;;;;;15.90;8.60;;;;;;;16.50;94.91;100405.41;20791866;28;20061;-76
2022/06/09 01:27:37;;;;;;;13.98;8.77;;;;;;;16.51;94.57;100408.88;20777407;28;20510;-74
2022/06/09 01:37:59;;;;;;;22.65;9.75;;;;;;;16.54;95.20;100417.28;20789154;28;20053;-75
2022/06/09 01:48:25;;;;;;;18.73;10.73;;;;;;;16.52;96.04;100427.13;20793122;28;20050;-73
2022/06/09 01:59:00;;;;;;;23.38;11.98;;;;;;;16.53;95.27;100428.78;20762160;28;20529;-73
2022/06/09 02:09:25;;;;;;;23.65;13.10;;;;;;;16.45;95.92;100439.19;20769933;28;20075;-73
2022/06/09 02:19:49;;;;;;;26.33;13.18;;;;;;;16.43;96.33;100451.72;20797709;28;20041;-73
2022/06/09 02:30:12;;;;;;;31.05;12.95;;;;;;;16.39;96.93;100459.19;20775008;28;20038;-75
2022/06/09 02:40:56;;;;;;;26.45;12.27;;;;;;;16.34;95.37;100472.78;20758033;28;20096;-74
2022/06/09 02:51:32;;;;;;;28.75;13.15;;;;;;;16.37;96.30;100471.66;20773417;28;20049;-75
2022/06/09 03:01:54;;;;;;;28.92;12.45;;;;;;;16.30;96.07;100492.41;20790269;28;20046;-76
2022/06/09 03:12:15;;;;;;;31.90;12.82;;;;;;;16.31;95.88;100503.78;20758976;28;20037;-78
2022/06/09 03:22:37;;;;;;;28.70;13.07;;;;;;;16.33;95.18;100520.28;20803514;28;20072;-76
2022/06/09 03:32:59;;;;;;;32.45;13.57;;;;;;;16.35;96.00;100510.44;20777368;28;20425;-75
2022/06/09 03:43:21;;;;;;;31.58;13.65;;;;;;;16.34;96.06;100529.81;20783266;28;20049;-73
2022/06/09 03:53:42;;;;;;;25.58;12.73;;;;;;;16.33;95.38;100538.69;20782576;28;20077;-74
2022/06/09 04:04:04;;;;;;;27.70;12.57;;;;;;;16.36;95.27;100548.94;20782128;28;20144;-73
2022/06/09 04:14:26;;;;;;;28.85;11.73;;;;;;;16.31;94.48;100566.94;20808826;28;20048;-73
2022/06/09 04:24:48;;;;;;;18.83;9.57;;;;;;;16.28;93.32;100568.03;20788755;28;20037;-70
2022/06/09 04:35:09;;;;;;;;;;;;;;;16.31;97.20;100580.09;20782542;28;20041;-70
2022/06/09 04:45:31;;;;;;;21.05;9.40;;;;;;;16.23;93.02;100595.72;20790374;28;19925;-70
2022/06/09 04:55:53;;;;;;;22.65;10.38;;;;;;;16.26;92.76;100600.72;20796318;28;20096;-70
2022/06/09 05:06:16;;;;;;;;;;;;;;;16.29;99.46;100617.03;20789372;28;20064;-70
2022/06/09 05:16:38;;;;;;;28.88;11.55;;;;;;;16.18;95.32;100630.34;20773296;28;20526;-70
2022/06/09 05:26:59;;;;;;;21.75;8.35;;;;;;;16.27;91.55;100649.72;20796015;28;20417;-71
2022/06/09 05:37:21;;;;;;;;;;;;;;;16.28;95.90;100662.72;20798358;28;20037;-71
2022/06/09 05:47:43;;;;;;;17.13;7.65;;;;;;;16.26;90.41;100677.00;20801973;28;19925;-70
2022/06/09 05:58:04;;;;;;;23.20;8.38;;;;;;;16.27;91.01;100697.09;20801277;28;20553;-70
2022/06/09 06:08:26;;;;;;;18.05;8.32;;;;;;;16.30;90.88;100720.50;20801038;28;20056;-70
2022/06/09 06:18:48;;;;;;;;;;;;;;;16.38;95.46;100736.44;20786882;28;20049;-71
2022/06/09 06:29:16;;;;;;;21.13;9.07;;;;;;;16.34;90.23;100748.19;20806671;28;20370;-70
2022/06/09 06:39:38;;;;;;;19.90;9.48;;;;;;;16.33;89.60;100759.69;20799574;28;20042;-70
2022/06/09 06:49:59;;;;;;;21.70;10.27;;;;;;;16.43;90.22;100778.00;20786121;28;20520;-71
2022/06/09 07:00:23;;;;;;;;;;;;;;;16.64;95.22;100791.84;20788395;28;20437;-71
2022/06/09 07:10:45;;;;;;;19.35;9.02;;;;;;;16.73;88.57;100801.56;20793459;28;19932;-71
2022/06/09 07:21:07;;;;;;;18.48;9.50;;;;;;;16.78;87.84;100825.66;20794674;28;20080;-72
2022/06/09 07:31:29;;;;;;;19.55;9.70;;;;;;;16.75;87.28;100838.28;20782731;28;20049;-71
2022/06/09 07:41:51;;;;;;;21.73;9.77;;;;;;;16.88;87.24;100868.63;20778860;28;20451;-70
2022/06/09 07:52:13;;;;;;;19.00;10.68;;;;;;;16.91;87.30;100891.25;20790560;28;20077;-69
2022/06/09 08:02:35;;;;;;;16.40;10.45;;;;;;;16.95;88.77;100905.81;20763824;28;20056;-69
2022/06/09 08:12:59;;;;;;;18.42;10.82;;;;;;;16.95;87.14;100914.53;20783114;28;20038;-69
2022/06/09 08:23:27;;;;;;;17.67;9.50;;;;;;;16.98;86.95;100924.78;20779070;28;20136;-70
2022/06/09 08:33:49;;;;;;;17.23;9.55;;;;;;;17.20;86.50;100932.44;20786710;28;20390;-68
2022/06/09 08:44:37;;;;;;;22.33;8.98;;;;;;;17.60;87.15;100941.88;20777023;28;20055;-68
2022/06/09 08:55:02;;;;;;;19.85;9.30;;;;;;;17.85;83.36;100945.75;20795470;28;20065;-67
2022/06/09 09:05:50;;;;;;;14.60;9.43;;;;;;;18.22;83.63;100957.16;20788847;28;20052;-68
2022/06/09 09:16:20;;;;;;;14.25;9.70;;;;;;;18.23;82.89;100966.75;20781683;28;20167;-67
2022/06/09 09:27:04;;;;;;;16.08;10.25;;;;;;;18.45;82.03;100973.38;20782692;28;20049;-67
2022/06/09 09:37:40;;;;;;;;;;;;;;;18.71;80.97;100979.63;20796668;28;20055;-66
2022/06/09 09:48:21;;;;;;;;;;;;;;;19.20;80.07;100989.81;20776362;28;19925;-67
2022/06/09 09:58:46;;;;;;;9.63;6.38;;;;;;;19.04;79.09;101001.97;20751374;28;20677;-67
2022/06/09 10:09:28;;;;;;;7.45;5.57;;;;;;;19.19;79.85;101011.94;20632472;28;20053;-65
2022/06/09 10:20:32;;;;;;;8.43;6.00;;;;;;;19.32;79.13;101017.69;20630235;28;20156;-66
2022/06/09 10:31:06;;;;;;;;;;;;;;;19.89;75.02;101027.81;20621671;28;20458;-65
2022/06/09 10:41:45;;;;;;;6.32;3.88;;;;;;;20.32;72.10;101030.47;20674457;28;20370;-66
2022/06/09 11:02:54;;;;;;;3.95;2.90;;;;;;;20.73;73.65;101073.75;20796095;28;20054;-66
2022/06/09 11:13:25;;;;;;;3.72;2.28;;;;;;;21.62;66.67;101081.13;20771867;28;20049;-66
2022/06/09 11:24:39;;;;;;;2.25;1.30;;;;;;;21.65;63.69;101089.59;20776197;28;20129;-65
2022/06/09 11:35:32;;;;;;;2.97;1.17;;;;;;;20.88;67.15;101106.69;20772878;28;20042;-65
2022/06/09 11:46:01;;;;;;;5.35;1.20;;;;;;;20.62;69.85;101105.84;20780080;28;20045;-64
2022/06/09 11:56:43;;;;;;;2.10;0.70;;;;;;;21.09;68.99;101120.38;20772373;28;20041;-68
2022/06/09 12:07:23;;;;;;;2.22;0.70;;;;;;;20.95;66.82;101126.28;20779304;28;20053;-69
2022/06/09 12:18:02;;;;;;;;;;;;;;;20.77;61.25;101133.44;20778787;28;20172;-69
2022/06/09 12:28:55;;;;;;;2.30;0.68;;;;;;;20.87;61.62;101154.56;20777557;28;19944;-69
2022/06/09 12:39:32;;;;;;;4.38;0.57;;;;;;;20.90;63.02;101159.53;20780840;28;20622;-69
2022/06/09 12:50:04;;;;;;;4.97;0.77;;;;;;;20.92;69.72;101178.75;20779520;28;20048;-68
2022/06/09 13:00:31;;;;;;;3.10;0.75;;;;;;;20.88;64.66;101172.94;20792103;28;20054;-69
2022/06/09 13:11:14;;;;;;;1.95;0.60;;;;;;;21.14;61.71;101197.63;20791366;28;20048;-68
2022/06/09 13:21:42;;;;;;;1.30;0.50;;;;;;;21.48;65.76;101206.44;20790434;28;20085;-68
2022/06/09 13:32:23;;;;;;;4.80;0.75;;;;;;;21.45;62.56;101222.66;20782023;28;20623;-66
2022/06/09 13:42:59;;;;;;;4.70;0.80;;;;;;;21.20;64.75;101231.50;20801959;28;20494;-67
2022/06/09 13:53:20;;;;;;;7.45;0.80;;;;;;;21.04;70.43;101244.66;20793616;28;20539;-68
2022/06/09 14:03:46;;;;;;;4.25;0.80;;;;;;;21.25;67.37;101254.88;20774239;28;20045;-66
2022/06/09 14:14:08;;;;;;;2.70;0.82;;;;;;;21.29;67.63;101265.03;20774476;28;20037;-68
2022/06/09 14:24:30;;;;;;;6.47;1.20;;;;;;;21.46;64.59;101285.34;20786703;28;20058;-67
2022/06/09 14:34:52;;;;;;;2.05;0.80;;;;;;;21.63;66.61;101292.47;20784637;28;20071;-67
2022/06/09 14:45:14;;;;;;;8.23;0.88;;;;;;;21.62;65.54;101301.41;20784060;28;20052;-66
2022/06/09 14:55:37;;;;;;;3.85;0.70;;;;;;;21.61;67.35;101327.09;20770931;28;20045;-67
2022/06/09 15:06:00;;;;;;;5.10;1.00;;;;;;;21.63;64.42;101337.59;20783595;28;20076;-66
2022/06/09 15:16:21;;;;;;;3.97;0.70;;;;;;;21.83;66.62;101353.13;20780645;28;20044;-67
2022/06/09 15:26:58;;;;;;;2.50;0.65;;;;;;;21.72;63.26;101371.13;20783723;28;20509;-69
2022/06/09 15:37:20;;;;;;;4.65;0.75;;;;;;;21.67;66.44;101368.13;20775176;28;20049;-68
2022/06/09 15:47:42;;;;;;;4.53;0.80;;;;;;;21.77;65.10;101380.28;20767474;28;20503;-69
2022/06/09 15:58:05;;;;;;;2.85;0.77;;;;;;;21.60;65.90;101388.31;20797805;28;20060;-71
2022/06/09 16:08:27;;;;;;;1.73;0.68;;;;;;;22.21;63.11;101405.75;20786703;28;20462;-67
2022/06/09 16:18:50;;;;;;;5.33;0.90;;;;;;;22.83;63.22;101403.53;20869515;28;20407;-66
2022/06/09 16:29:12;;;;;;;5.43;1.00;;;;;;;23.05;64.07;101407.41;20850393;28;20044;-66
2022/06/09 16:39:34;;;;;;;3.83;0.80;;;;;;;22.90;65.32;101419.66;20862600;28;20044;-63
2022/06/09 16:49:55;;;;;;;3.47;1.00;;;;;;;22.81;65.08;101437.44;20844434;28;20038;-64
2022/06/09 17:00:23;;;;;;;5.75;0.80;;;;;;;22.99;63.66;101467.41;20826562;28;20042;-64
2022/06/09 17:10:46;;;;;;;;;;;;;;;23.16;61.77;101474.44;20853360;28;20126;-68
2022/06/09 17:21:08;;;;;;;;;;;;;;;22.79;61.77;101481.97;20867092;28;19920;-66
2022/06/09 17:31:30;;;;;;;;;;;;;;;22.41;67.38;101503.72;20864247;28;19921;-66
2022/06/09 17:41:51;;;;;;;;;;;;;;;21.99;65.28;101517.00;20864407;28;19929;-67
2022/06/09 17:52:13;;;;;;;3.53;1.00;;;;;;;21.56;68.83;101519.63;20852246;28;20437;-69
2022/06/09 18:02:35;;;;;;;2.95;1.00;;;;;;;21.18;69.29;101533.16;20872808;28;20033;-69
2022/06/09 18:12:57;;;;;;;5.35;1.10;;;;;;;20.69;69.64;101554.72;20880055;28;20083;-68
2022/06/09 18:23:19;;;;;;;4.82;1.27;;;;;;;20.37;70.80;101558.75;20848965;28;20106;-68
2022/06/09 18:33:42;;;;;;;5.40;1.05;;;;;;;20.19;70.99;101571.06;20872385;28;20045;-68
2022/06/09 18:44:04;;;;;;;6.93;1.27;;;;;;;20.08;71.18;101573.88;20854080;28;20045;-67
2022/06/09 18:54:26;;;;;;;3.67;1.23;;;;;;;19.93;70.95;101577.88;20868137;28;20049;-68
2022/06/09 19:04:47;;;;;;;7.63;1.10;;;;;;;19.77;71.52;101597.97;20870788;28;20405;-67
2022/06/09 19:15:10;;;;;;;5.97;1.50;;;;;;;19.64;72.00;101610.63;20869553;28;20044;-66
2022/06/09 19:25:33;;;;;;;7.63;1.20;;;;;;;19.44;71.58;101617.66;20874313;28;20048;-67
2022/06/09 19:35:57;;;;;;;10.98;1.45;;;;;;;19.20;72.69;101637.53;20876041;28;20077;-66
2022/06/09 19:46:25;;;;;;;12.32;1.55;;;;;;;19.08;72.52;101659.69;20876172;28;20485;-67
2022/06/09 19:56:47;;;;;;;7.20;1.60;;;;;;;18.82;73.77;101679.59;20872235;28;20048;-66
2022/06/09 20:07:15;;;;;;;7.40;1.38;;;;;;;18.65;74.07;101682.00;20871506;28;20049;-66
2022/06/09 20:17:36;;;;;;;8.57;1.80;;;;;;;18.53;74.62;101690.94;20858430;28;20135;-67
2022/06/09 20:28:01;;;;;;;7.65;1.50;;;;;;;18.36;75.00;101715.28;20865797;28;20045;-66
2022/06/09 20:38:27;;;;;;;8.02;1.50;;;;;;;18.25;75.49;101722.41;20860429;28;20061;-66
2022/06/09 20:48:54;;;;;;;7.05;1.50;;;;;;;18.18;76.24;101729.13;20869771;28;20504;-65
2022/06/09 20:59:16;;;;;;;10.05;1.70;;;;;;;18.02;76.35;101739.25;20892878;28;20167;-66
2022/06/09 21:09:37;;;;;;;10.95;2.53;;;;;;;17.71;78.20;101745.31;20870076;28;20053;-66
2022/06/09 21:19:59;;;;;;;6.40;1.90;;;;;;;17.42;79.14;101744.13;20885141;28;20405;-65
2022/06/09 21:30:21;;;;;;;6.80;1.95;;;;;;;17.30;79.92;101755.63;20883418;28;20057;-66
2022/06/09 21:40:42;;;;;;;8.32;2.05;;;;;;;17.24;79.78;101758.69;20892244;28;20404;-66
2022/06/09 21:51:04;;;;;;;8.30;1.98;;;;;;;17.15;80.52;101769.94;20889135;28;20045;-66
2022/06/09 22:01:26;;;;;;;10.13;1.75;;;;;;;16.98;80.66;101772.16;20861217;28;20049;-67
2022/06/09 22:11:47;;;;;;;6.28;2.17;;;;;;;16.88;80.10;101774.66;20875504;28;20045;-66
2022/06/09 22:22:09;;;;;;;8.15;2.10;;;;;;;16.71;80.92;101785.63;20921182;28;20057;-64
2022/06/09 22:32:31;;;;;;;7.13;1.90;;;;;;;16.55;81.18;101792.13;20867750;28;20417;-66
2022/06/09 22:42:53;;;;;;;7.20;2.00;;;;;;;16.44;81.26;101790.31;20865887;28;20065;-65
2022/06/09 22:53:14;;;;;;;7.13;2.13;;;;;;;16.26;81.72;101805.72;20870855;28;20039;-65
2022/06/09 23:03:37;;;;;;;6.70;2.20;;;;;;;16.15;81.30;101808.31;20874334;28;21906;-67
2022/06/09 23:13:59;;;;;;;7.72;2.03;;;;;;;16.07;82.00;101800.09;20902861;28;20049;-66
2022/06/09 23:24:21;;;;;;;13.23;2.25;;;;;;;15.95;81.77;101811.50;20871326;28;20105;-66
2022/06/09 23:34:43;;;;;;;10.05;2.30;;;;;;;15.86;82.33;101806.91;20872842;28;20080;-66
2022/06/09 23:55:47;;;;;;;4.67;2.40;;;;;;;15.60;82.82;101816.63;20864860;28;20061;-66
